Time;durP1;ratioP1;P1;durP2;ratioP2;P2;SDS_P1;SDS_P2;PMS_P1;PMS_P2;Temp;Humidity;BMP_temperature;BMP_pressure;BME280_temperature;BME280_humidity;BME280_pressure;Samples;Min_cycle;Max_cycle;Signal;HPM_P1;HPM_P2
2021/06/19 00:01:12;;;;;;;5.00;4.50;;;24.60;54.80;;;;;;4981233;28;20401;-62
2021/06/19 00:03:38;;;;;;;5.10;4.60;;;24.50;54.70;;;;;;4983405;28;20426;-62
2021/06/19 00:06:04;;;;;;;5.28;4.60;;;24.50;54.70;;;;;;4983855;28;20391;-62
2021/06/19 00:08:29;;;;;;;4.70;4.20;;;24.50;54.70;;;;;;4985964;28;20757;-62
2021/06/19 00:10:55;;;;;;;5.03;4.53;;;24.50;54.80;;;;;;4987423;28;20405;-62
2021/06/19 00:13:21;;;;;;;5.50;4.53;;;24.50;54.70;;;;;;4999546;28;20521;-67
2021/06/19 00:15:47;;;;;;;5.00;4.50;;;24.50;54.80;;;;;;4988489;28;20426;-62
2021/06/19 00:18:12;;;;;;;5.73;4.67;;;24.50;54.60;;;;;;4994576;28;20436;-62
2021/06/19 00:20:38;;;;;;;4.88;4.38;;;24.50;54.70;;;;;;4983500;28;20390;-62
2021/06/19 00:23:04;;;;;;;5.50;4.57;;;24.50;54.80;;;;;;4982255;28;20426;-62
2021/06/19 00:25:30;;;;;;;5.07;4.45;;;24.50;54.70;;;;;;4983985;28;20476;-62
2021/06/19 00:27:55;;;;;;;5.07;4.50;;;24.50;54.60;;;;;;4983028;28;20425;-62
2021/06/19 00:30:23;;;;;;;4.63;4.20;;;24.50;54.60;;;;;;4984106;28;20500;-62
2021/06/19 00:32:50;;;;;;;4.80;4.30;;;24.50;54.80;;;;;;4986864;28;20393;-62
2021/06/19 00:35:16;;;;;;;4.70;4.30;;;24.50;54.60;;;;;;4984111;28;21407;-62
2021/06/19 00:37:42;;;;;;;4.57;4.18;;;24.40;54.60;;;;;;4983527;28;20509;-62
2021/06/19 00:40:11;;;;;;;4.63;4.13;;;24.40;55.20;;;;;;4985918;28;20393;-62
2021/06/19 00:42:38;;;;;;;4.88;4.38;;;24.40;54.70;;;;;;4985777;28;20441;-62
2021/06/19 00:45:05;;;;;;;5.05;4.15;;;24.40;54.70;;;;;;4988344;28;20406;-62
2021/06/19 00:47:31;;;;;;;4.88;4.47;;;24.40;54.70;;;;;;4996245;28;21367;-68
2021/06/19 00:49:57;;;;;;;4.50;4.10;;;24.40;54.70;;;;;;4993849;28;20406;-62
2021/06/19 00:52:23;;;;;;;4.68;4.28;;;24.40;54.80;;;;;;4992506;28;20913;-66
2021/06/19 00:54:48;;;;;;;4.82;4.32;;;24.40;54.70;;;;;;4991008;28;20406;-67
2021/06/19 00:57:14;;;;;;;4.63;4.10;;;24.40;54.70;;;;;;4988525;28;20429;-67
2021/06/19 00:59:42;;;;;;;4.50;4.10;;;24.40;54.70;;;;;;4989148;28;20835;-62
2021/06/19 01:02:08;;;;;;;4.65;4.25;;;24.40;54.60;;;;;;4995087;28;20410;-62
2021/06/19 01:04:34;;;;;;;4.63;4.20;;;24.40;54.80;;;;;;5004958;28;20779;-62
2021/06/19 01:07:00;;;;;;;4.43;4.03;;;24.40;55.30;;;;;;4989244;28;20867;-62
2021/06/19 01:09:26;;;;;;;4.35;3.95;;;24.40;54.80;;;;;;4988992;28;20406;-65
2021/06/19 01:11:52;;;;;;;4.53;4.13;;;24.40;54.80;;;;;;4989277;28;20374;-63
2021/06/19 01:14:18;;;;;;;4.43;4.00;;;24.40;54.80;;;;;;4987989;28;21018;-62
2021/06/19 01:16:48;;;;;;;4.65;4.25;;;24.40;54.70;;;;;;4989639;28;20902;-62
2021/06/19 01:19:15;;;;;;;4.47;4.07;;;24.40;54.80;;;;;;4992669;28;20594;-62
2021/06/19 01:21:40;;;;;;;4.22;3.83;;;24.40;54.60;;;;;;4990352;28;20824;-62
2021/06/19 01:24:16;;;;;;;4.50;4.10;;;24.40;54.70;;;;;;4991882;28;20424;-62
2021/06/19 01:26:43;;;;;;;4.47;4.07;;;24.40;54.80;;;;;;4987660;28;20399;-62
2021/06/19 01:29:08;;;;;;;4.30;3.90;;;24.40;54.90;;;;;;4994075;28;20438;-62
2021/06/19 01:31:37;;;;;;;4.50;4.10;;;24.40;54.80;;;;;;4992011;28;20484;-63
2021/06/19 01:34:03;;;;;;;4.75;4.35;;;24.40;54.80;;;;;;4993590;28;20394;-62
2021/06/19 01:36:29;;;;;;;4.60;4.20;;;24.40;54.70;;;;;;4992002;28;20460;-63
2021/06/19 01:38:55;;;;;;;4.30;3.90;;;24.40;54.60;;;;;;4992519;28;20410;-62
2021/06/19 01:41:30;;;;;;;4.50;3.90;;;24.30;54.70;;;;;;4986732;28;20399;-62
2021/06/19 01:44:04;;;;;;;4.25;3.85;;;24.40;54.70;;;;;;4991409;28;20421;-62
2021/06/19 01:46:31;;;;;;;4.35;3.95;;;24.40;54.80;;;;;;4990946;28;20980;-62
2021/06/19 01:48:57;;;;;;;4.43;4.03;;;24.40;54.90;;;;;;4990869;28;20778;-61
2021/06/19 01:51:23;;;;;;;4.20;3.80;;;24.40;55.00;;;;;;4994063;28;20394;-61
2021/06/19 01:53:50;;;;;;;4.73;4.33;;;24.30;54.80;;;;;;4989640;28;20436;-62
2021/06/19 01:56:16;;;;;;;4.55;3.97;;;24.40;54.70;;;;;;4990620;28;20482;-62
2021/06/19 01:58:42;;;;;;;5.10;4.05;;;24.40;55.00;;;;;;4991306;28;20406;-62
2021/06/19 02:01:10;;;;;;;4.40;4.00;;;24.30;54.90;;;;;;4991023;28;20390;-62
2021/06/19 02:03:36;;;;;;;4.40;4.00;;;24.40;55.00;;;;;;4990674;28;20489;-61
2021/06/19 02:06:03;;;;;;;5.85;4.32;;;24.30;54.90;;;;;;4997583;28;20389;-62
2021/06/19 02:08:28;;;;;;;5.20;4.20;;;24.30;54.80;;;;;;4991505;28;20750;-62
2021/06/19 02:10:58;;;;;;;5.20;3.90;;;24.30;55.10;;;;;;4995616;28;20458;-61
2021/06/19 02:13:24;;;;;;;4.88;4.30;;;24.30;54.90;;;;;;4991308;28;20796;-62
2021/06/19 02:15:51;;;;;;;5.53;3.97;;;24.30;55.10;;;;;;4991555;28;20386;-61
2021/06/19 02:18:17;;;;;;;6.65;4.10;;;24.30;55.00;;;;;;4991400;28;20485;-62
2021/06/19 02:20:44;;;;;;;5.15;4.00;;;24.30;55.00;;;;;;4984731;28;20405;-62
2021/06/19 02:23:10;;;;;;;5.00;4.00;;;24.30;55.00;;;;;;4995436;28;20416;-62
2021/06/19 02:25:36;;;;;;;4.50;3.90;;;24.30;55.00;;;;;;4988026;28;20405;-62
2021/06/19 02:28:05;;;;;;;4.68;4.10;;;24.30;55.00;;;;;;4990326;28;20455;-62
2021/06/19 02:30:40;;;;;;;4.35;3.95;;;24.30;54.80;;;;;;4990513;28;20892;-62
2021/06/19 02:33:06;;;;;;;4.90;4.30;;;24.30;55.10;;;;;;4992649;28;20395;-62
2021/06/19 02:35:34;;;;;;;4.57;3.63;;;24.30;54.80;;;;;;4992943;28;20390;-62
2021/06/19 02:38:00;;;;;;;4.20;3.80;;;24.30;54.90;;;;;;4993522;28;20393;-62
2021/06/19 02:40:27;;;;;;;4.93;3.77;;;24.30;55.00;;;;;;4987186;28;20398;-62
2021/06/19 02:42:54;;;;;;;5.47;4.05;;;24.30;54.90;;;;;;4996980;28;20921;-62
2021/06/19 02:45:20;;;;;;;4.57;4.18;;;24.30;55.00;;;;;;4989880;28;20430;-62
2021/06/19 02:47:51;;;;;;;4.68;4.28;;;24.30;55.00;;;;;;4990067;28;20921;-62
2021/06/19 02:50:19;;;;;;;4.60;3.80;;;24.30;55.10;;;;;;4990875;28;20398;-62
2021/06/19 02:52:45;;;;;;;4.35;3.95;;;24.30;55.00;;;;;;4994719;28;20484;-62
2021/06/19 02:55:13;;;;;;;4.65;4.25;;;24.20;55.00;;;;;;4990491;28;20405;-62
2021/06/19 02:57:39;;;;;;;4.40;4.00;;;24.30;55.00;;;;;;4994629;28;20388;-62
2021/06/19 03:00:08;;;;;;;4.80;4.30;;;24.30;55.00;;;;;;4990462;28;20405;-62
2021/06/19 03:02:34;;;;;;;4.80;4.28;;;24.20;54.90;;;;;;4989150;28;20429;-62
2021/06/19 03:05:00;;;;;;;4.60;4.10;;;24.20;54.90;;;;;;4990066;28;20398;-62
2021/06/19 03:07:26;;;;;;;4.60;4.00;;;24.30;55.00;;;;;;4989798;28;20465;-62
2021/06/19 03:09:52;;;;;;;4.45;4.05;;;24.20;55.00;;;;;;4990574;28;20858;-62
2021/06/19 03:12:18;;;;;;;4.60;4.20;;;24.20;54.90;;;;;;4986449;28;20390;-62
2021/06/19 03:14:43;;;;;;;4.33;3.93;;;24.20;55.00;;;;;;4987134;28;20445;-62
2021/06/19 03:17:09;;;;;;;4.57;4.18;;;24.20;54.90;;;;;;4991269;28;20919;-62
2021/06/19 03:19:35;;;;;;;4.40;4.00;;;24.20;55.00;;;;;;4990229;28;20494;-62
2021/06/19 03:22:01;;;;;;;4.40;4.00;;;24.20;54.90;;;;;;4990163;28;20394;-62
2021/06/19 03:24:27;;;;;;;4.37;3.90;;;24.20;54.90;;;;;;4992816;28;20423;-62
2021/06/19 03:26:54;;;;;;;4.75;4.35;;;24.20;54.90;;;;;;4990278;28;20390;-62
2021/06/19 03:29:20;;;;;;;4.40;4.00;;;24.20;54.80;;;;;;4993224;28;20479;-62
2021/06/19 03:31:46;;;;;;;4.72;4.32;;;24.20;55.00;;;;;;4989583;28;20466;-62
2021/06/19 03:34:12;;;;;;;4.97;4.50;;;24.20;54.90;;;;;;4989572;28;20534;-62
2021/06/19 03:36:37;;;;;;;4.60;4.20;;;24.20;54.90;;;;;;4989651;28;20390;-62
2021/06/19 03:39:03;;;;;;;4.70;4.17;;;24.20;55.00;;;;;;4992865;28;20528;-63
2021/06/19 03:41:29;;;;;;;4.38;3.97;;;24.20;54.80;;;;;;4989635;28;20451;-62
2021/06/19 03:43:55;;;;;;;4.18;3.78;;;24.20;54.90;;;;;;4989983;28;20426;-62
2021/06/19 03:46:20;;;;;;;4.60;4.20;;;24.20;54.80;;;;;;4987133;28;20867;-62
2021/06/19 03:48:46;;;;;;;4.43;4.03;;;24.20;54.80;;;;;;4998238;28;20419;-62
2021/06/19 03:51:12;;;;;;;4.38;3.92;;;24.20;54.90;;;;;;4983922;28;20391;-62
2021/06/19 03:53:37;;;;;;;4.75;4.30;;;24.20;54.80;;;;;;4991457;28;20400;-62
2021/06/19 03:56:03;;;;;;;4.70;4.30;;;24.20;54.90;;;;;;4993362;28;20389;-62
2021/06/19 03:58:29;;;;;;;4.60;4.20;;;24.20;54.90;;;;;;4989274;28;20400;-62
2021/06/19 04:00:55;;;;;;;4.47;4.07;;;24.20;54.70;;;;;;4989039;28;20885;-62
2021/06/19 04:03:20;;;;;;;4.70;4.23;;;24.20;54.90;;;;;;4986290;28;20441;-62
2021/06/19 04:05:46;;;;;;;4.30;3.90;;;24.20;54.80;;;;;;4993201;28;20401;-62
2021/06/19 04:08:12;;;;;;;4.70;4.30;;;24.20;55.00;;;;;;4991863;28;21052;-62
2021/06/19 04:10:37;;;;;;;4.43;4.03;;;24.20;54.90;;;;;;4990505;28;20806;-62
2021/06/19 04:13:03;;;;;;;4.70;4.23;;;24.20;54.80;;;;;;4986336;28;20410;-61
2021/06/19 04:15:29;;;;;;;4.25;3.85;;;24.20;54.70;;;;;;4989532;28;20398;-62
2021/06/19 04:17:54;;;;;;;4.97;4.50;;;24.20;54.80;;;;;;4982917;28;20393;-62
2021/06/19 04:20:20;;;;;;;4.80;4.07;;;24.20;54.80;;;;;;4998038;28;20416;-62
2021/06/19 04:22:46;;;;;;;4.45;4.05;;;24.20;54.80;;;;;;4989094;28;20402;-62
2021/06/19 04:25:14;;;;;;;4.40;4.00;;;24.20;54.80;;;;;;4997949;28;20794;-62
2021/06/19 04:27:55;;;;;;;4.47;4.07;;;24.20;54.80;;;;;;4992800;28;20385;-62
2021/06/19 04:30:22;;;;;;;4.50;4.10;;;24.20;55.30;;;;;;4992930;28;20389;-62
2021/06/19 04:32:48;;;;;;;4.60;4.20;;;24.20;54.90;;;;;;4993679;28;20421;-62
2021/06/19 04:35:15;;;;;;;4.68;4.28;;;24.20;54.70;;;;;;4993114;28;20743;-62
2021/06/19 04:37:42;;;;;;;4.57;4.18;;;24.20;54.70;;;;;;4992989;28;20879;-62
2021/06/19 04:43:07;;;;;;;4.30;3.90;;;24.20;54.60;;;;;;4986609;28;20417;-62
2021/06/19 04:45:35;;;;;;;4.75;3.97;;;24.20;54.60;;;;;;4997375;28;20877;-62
2021/06/19 04:48:03;;;;;;;4.50;4.10;;;24.20;54.70;;;;;;4994551;28;20813;-62
2021/06/19 04:50:30;;;;;;;4.45;4.05;;;24.20;54.70;;;;;;4997876;28;20411;-62
2021/06/19 04:52:56;;;;;;;4.70;4.30;;;24.20;54.60;;;;;;4996631;28;20779;-62
2021/06/19 04:55:22;;;;;;;4.57;4.18;;;24.20;54.70;;;;;;4991658;28;20489;-62
2021/06/19 04:57:52;;;;;;;4.53;4.13;;;24.20;54.70;;;;;;4992333;28;20528;-62
2021/06/19 05:00:19;;;;;;;4.50;4.10;;;24.20;54.70;;;;;;4992014;28;20398;-62
2021/06/19 05:02:45;;;;;;;4.95;4.45;;;24.20;54.70;;;;;;4998335;28;20503;-62
2021/06/19 05:05:11;;;;;;;4.38;3.97;;;24.20;54.70;;;;;;4987133;28;20913;-62
2021/06/19 05:07:37;;;;;;;4.53;4.13;;;24.20;54.70;;;;;;4988069;28;20398;-62
2021/06/19 05:10:05;;;;;;;4.33;3.93;;;24.20;54.70;;;;;;4991294;28;20763;-62
2021/06/19 05:12:33;;;;;;;4.10;3.80;;;24.20;54.70;;;;;;4993842;28;20399;-62
2021/06/19 05:15:00;;;;;;;4.20;3.80;;;24.20;54.70;;;;;;4992560;28;20410;-62
2021/06/19 05:17:29;;;;;;;4.40;4.00;;;24.20;54.60;;;;;;4995504;28;20401;-62
2021/06/19 05:19:55;;;;;;;4.28;3.80;;;24.20;54.80;;;;;;4987788;28;20404;-63
2021/06/19 05:22:21;;;;;;;4.50;4.10;;;24.20;54.50;;;;;;4992731;28;20806;-62
2021/06/19 05:24:47;;;;;;;4.20;3.80;;;24.20;54.60;;;;;;4991659;28;20484;-62
2021/06/19 05:27:13;;;;;;;4.40;4.00;;;24.20;54.70;;;;;;4991057;28;20872;-63
2021/06/19 05:29:39;;;;;;;4.30;3.90;;;24.20;54.70;;;;;;5001192;28;20393;-62
2021/06/19 05:32:05;;;;;;;4.72;4.00;;;24.30;54.20;;;;;;4993006;28;20420;-62
2021/06/19 05:34:31;;;;;;;4.50;3.78;;;24.30;53.90;;;;;;4996481;28;20400;-62
2021/06/19 05:36:57;;;;;;;4.33;3.60;;;24.40;54.10;;;;;;4987859;28;20759;-62
2021/06/19 05:39:22;;;;;;;5.63;4.00;;;24.40;54.20;;;;;;4975011;28;20416;-63
2021/06/19 05:41:48;;;;;;;4.50;4.10;;;24.40;54.30;;;;;;4991360;28;21193;-62
2021/06/19 05:44:14;;;;;;;5.97;4.07;;;24.50;54.40;;;;;;4986524;28;20430;-62
2021/06/19 05:46:39;;;;;;;5.40;4.03;;;24.50;54.30;;;;;;4992326;28;20406;-62
2021/06/19 05:49:05;;;;;;;4.00;3.67;;;24.50;54.30;;;;;;4984364;28;20401;-62
2021/06/19 05:51:32;;;;;;;4.35;3.72;;;24.50;54.40;;;;;;4990559;28;20396;-62
2021/06/19 05:53:57;;;;;;;5.20;3.90;;;24.50;54.00;;;;;;4991498;28;21435;-63
2021/06/19 05:56:23;;;;;;;5.03;4.00;;;24.50;54.20;;;;;;4991447;28;20397;-63
2021/06/19 05:58:49;;;;;;;5.15;3.70;;;24.60;54.40;;;;;;4994549;28;20401;-63
2021/06/19 06:01:15;;;;;;;5.73;3.97;;;24.60;54.40;;;;;;4991661;28;21283;-62
2021/06/19 06:03:41;;;;;;;4.75;3.80;;;24.60;54.60;;;;;;4991165;28;20429;-62
2021/06/19 06:06:06;;;;;;;4.73;3.90;;;24.60;54.50;;;;;;4993721;28;20392;-63
2021/06/19 06:08:32;;;;;;;4.28;3.83;;;24.60;54.50;;;;;;4992620;28;20497;-63
2021/06/19 06:10:57;;;;;;;4.20;3.77;;;24.60;54.30;;;;;;4991463;28;20866;-63
2021/06/19 06:13:23;;;;;;;6.35;4.07;;;24.70;54.20;;;;;;4990710;28;20391;-64
2021/06/19 06:15:49;;;;;;;4.40;3.60;;;24.70;54.50;;;;;;4991027;28;20460;-63
2021/06/19 06:18:14;;;;;;;5.23;3.77;;;24.70;54.60;;;;;;4991669;28;20395;-63
2021/06/19 06:20:40;;;;;;;4.30;3.90;;;24.70;54.10;;;;;;4990346;28;20408;-63
2021/06/19 06:23:06;;;;;;;4.90;4.03;;;24.70;54.20;;;;;;4992452;28;21379;-62
2021/06/19 06:25:31;;;;;;;4.63;3.60;;;24.70;54.10;;;;;;4990679;28;21431;-63
2021/06/19 06:27:57;;;;;;;5.40;3.70;;;24.70;54.00;;;;;;4999462;28;20656;-62
2021/06/19 06:30:23;;;;;;;4.00;3.38;;;24.70;53.90;;;;;;4990997;28;20406;-63
2021/06/19 06:32:49;;;;;;;4.87;4.07;;;24.70;53.90;;;;;;4991392;28;20390;-63
2021/06/19 06:35:15;;;;;;;4.38;3.70;;;24.80;53.70;;;;;;4990134;28;20736;-62
2021/06/19 06:37:41;;;;;;;4.88;3.70;;;24.80;53.70;;;;;;4994228;28;20389;-63
2021/06/19 06:40:10;;;;;;;6.30;3.60;;;24.70;53.60;;;;;;4990151;28;20418;-62
2021/06/19 06:42:36;;;;;;;4.32;3.50;;;24.80;53.70;;;;;;4994126;28;20405;-63
2021/06/19 06:45:01;;;;;;;4.53;3.67;;;24.80;53.60;;;;;;4996036;28;20408;-63
2021/06/19 06:47:27;;;;;;;4.40;3.83;;;24.80;53.50;;;;;;4990534;28;21357;-63
2021/06/19 06:49:53;;;;;;;4.80;3.55;;;24.80;53.40;;;;;;4989903;28;20986;-62
2021/06/19 06:52:18;;;;;;;5.10;3.77;;;24.80;53.60;;;;;;4990753;28;20814;-62
2021/06/19 06:54:44;;;;;;;5.28;3.65;;;24.80;53.60;;;;;;4990765;28;20394;-62
2021/06/19 06:57:11;;;;;;;4.90;3.93;;;24.80;53.60;;;;;;4992023;28;20462;-67
2021/06/19 06:59:38;;;;;;;6.25;3.83;;;24.80;54.30;;;;;;4984205;28;20875;-62
2021/06/19 07:02:04;;;;;;;6.28;3.90;;;24.80;53.80;;;;;;4984708;28;20419;-62
2021/06/19 07:04:30;;;;;;;5.57;3.67;;;24.80;53.80;;;;;;5001124;28;20423;-62
2021/06/19 07:06:55;;;;;;;5.13;3.70;;;24.80;53.80;;;;;;4988987;28;21264;-62
2021/06/19 07:09:21;;;;;;;4.20;3.53;;;24.80;53.80;;;;;;4988293;28;20911;-62
2021/06/19 07:11:47;;;;;;;4.83;3.93;;;24.80;53.70;;;;;;4983377;28;20478;-62
2021/06/19 07:14:12;;;;;;;5.38;3.58;;;24.80;53.80;;;;;;4992185;28;20462;-62
2021/06/19 07:16:38;;;;;;;5.47;3.67;;;24.80;53.90;;;;;;4991480;28;20835;-62
2021/06/19 07:19:04;;;;;;;5.87;3.90;;;24.80;53.80;;;;;;4995283;28;20393;-62
2021/06/19 07:21:30;;;;;;;6.15;3.90;;;24.80;53.70;;;;;;4989895;28;20754;-62
2021/06/19 07:23:56;;;;;;;4.13;3.60;;;24.80;53.70;;;;;;4989803;28;20505;-63
2021/06/19 07:26:22;;;;;;;4.70;3.63;;;24.80;53.80;;;;;;4986318;28;20398;-62
2021/06/19 07:28:48;;;;;;;6.35;3.63;;;24.80;53.80;;;;;;4989915;28;20411;-62
2021/06/19 07:31:14;;;;;;;4.50;3.80;;;24.80;53.70;;;;;;4989535;28;20455;-62
2021/06/19 07:33:40;;;;;;;3.90;3.50;;;24.80;53.70;;;;;;4987638;28;20462;-62
2021/06/19 07:36:07;;;;;;;3.90;3.30;;;24.80;53.60;;;;;;4989408;28;20434;-62
2021/06/19 07:38:33;;;;;;;5.30;3.92;;;24.80;53.70;;;;;;4991208;28;20390;-64
2021/06/19 07:41:00;;;;;;;4.05;3.55;;;24.80;53.80;;;;;;4989778;28;20402;-63
2021/06/19 07:43:25;;;;;;;5.07;3.70;;;24.80;53.70;;;;;;4995074;28;20477;-63
2021/06/19 07:45:52;;;;;;;4.77;3.67;;;24.70;53.60;;;;;;4985887;28;20402;-62
2021/06/19 07:48:18;;;;;;;4.28;3.70;;;24.80;53.80;;;;;;4986302;28;20390;-62
2021/06/19 07:50:44;;;;;;;4.57;3.92;;;24.80;53.60;;;;;;4986967;28;20413;-62
2021/06/19 07:53:10;;;;;;;4.00;3.60;;;24.80;53.70;;;;;;4986800;28;20752;-62
2021/06/19 07:55:35;;;;;;;5.68;3.60;;;24.80;53.60;;;;;;4993465;28;20402;-62
2021/06/19 07:58:02;;;;;;;3.67;3.30;;;24.80;53.70;;;;;;4985869;28;20417;-62
2021/06/19 08:00:29;;;;;;;4.17;3.77;;;24.80;54.20;;;;;;5000999;28;20404;-61
2021/06/19 08:02:56;;;;;;;4.35;3.95;;;24.80;53.50;;;;;;4988577;28;20906;-61
2021/06/19 08:05:22;;;;;;;4.18;3.78;;;24.80;53.70;;;;;;4989531;28;22016;-62
2021/06/19 08:07:48;;;;;;;4.07;3.60;;;24.80;53.50;;;;;;5000894;28;20407;-62
2021/06/19 08:10:13;;;;;;;4.90;3.72;;;24.80;53.60;;;;;;4985008;28;20397;-62
2021/06/19 08:12:40;;;;;;;3.97;3.57;;;24.80;53.60;;;;;;4984017;28;20395;-62
2021/06/19 08:15:07;;;;;;;4.05;3.70;;;24.80;53.60;;;;;;4984474;28;20406;-62
2021/06/19 08:17:33;;;;;;;5.20;3.80;;;24.80;53.50;;;;;;4983291;28;20505;-62
2021/06/19 08:19:59;;;;;;;4.30;3.90;;;24.80;53.50;;;;;;4983448;28;20489;-61
2021/06/19 08:22:24;;;;;;;5.00;3.60;;;24.80;53.50;;;;;;4984786;28;20422;-62
2021/06/19 08:24:50;;;;;;;4.30;3.83;;;24.80;53.50;;;;;;4998179;28;20424;-62
2021/06/19 08:27:22;;;;;;;4.00;3.60;;;24.80;54.10;;;;;;4983542;28;20391;-62
2021/06/19 08:29:48;;;;;;;4.00;3.60;;;24.80;53.40;;;;;;4986212;28;20395;-62
2021/06/19 08:32:14;;;;;;;4.15;3.80;;;24.80;53.40;;;;;;4983529;28;20402;-62
2021/06/19 08:34:40;;;;;;;4.25;3.85;;;24.80;53.50;;;;;;4983985;28;20398;-62
2021/06/19 08:37:07;;;;;;;5.03;3.92;;;24.70;53.40;;;;;;4987716;28;20394;-61
2021/06/19 08:39:33;;;;;;;4.32;3.83;;;24.80;53.40;;;;;;4988331;28;20390;-62
2021/06/19 08:41:59;;;;;;;4.60;4.10;;;24.80;54.10;;;;;;4988551;28;20386;-62
2021/06/19 08:44:26;;;;;;;4.53;3.73;;;24.80;53.50;;;;;;4982688;28;20440;-62
2021/06/19 08:46:54;;;;;;;4.50;4.10;;;24.80;53.40;;;;;;4997900;28;20894;-62
2021/06/19 08:49:24;;;;;;;4.05;3.65;;;24.80;54.10;;;;;;4983018;28;20409;-61
2021/06/19 08:51:52;;;;;;;4.30;3.90;;;24.80;53.40;;;;;;4983433;28;20445;-62
2021/06/19 08:54:18;;;;;;;4.30;3.90;;;24.80;53.40;;;;;;4989801;28;20430;-62
2021/06/19 08:56:44;;;;;;;4.65;4.15;;;24.80;53.40;;;;;;4983239;28;20397;-62
2021/06/19 08:59:10;;;;;;;4.60;4.20;;;24.80;53.50;;;;;;4983717;28;20395;-62
2021/06/19 09:01:40;;;;;;;4.60;4.10;;;24.80;53.60;;;;;;4983172;28;20988;-62
2021/06/19 09:04:07;;;;;;;4.40;4.00;;;24.80;53.70;;;;;;4983709;28;20434;-62
2021/06/19 09:06:40;;;;;;;7.90;5.13;;;24.80;53.80;;;;;;4983856;28;20402;-62
2021/06/19 09:09:15;;;;;;;5.97;4.90;;;24.80;55.70;;;;;;4987432;28;20442;-62
2021/06/19 09:12:08;;;;;;;7.18;5.20;;;24.80;54.60;;;;;;4986177;28;20720;-62
2021/06/19 09:14:34;;;;;;;6.30;4.93;;;24.90;55.60;;;;;;4985198;28;20398;-61
2021/06/19 09:17:01;;;;;;;8.02;4.82;;;24.90;55.70;;;;;;4986744;28;20554;-61
2021/06/19 09:19:39;;;;;;;8.68;5.13;;;25.00;56.30;;;;;;4990391;28;20391;-62
2021/06/19 09:22:19;;;;;;;9.77;4.95;;;25.00;56.40;;;;;;4989905;28;20392;-62
2021/06/19 09:24:58;;;;;;;11.10;5.15;;;25.00;56.10;;;;;;4988119;28;20505;-62
2021/06/19 09:27:49;;;;;;;6.60;4.80;;;25.10;56.00;;;;;;4986009;28;20448;-62
2021/06/19 09:30:21;;;;;;;7.35;5.00;;;25.10;56.20;;;;;;4988136;28;20749;-62
2021/06/19 09:32:54;;;;;;;7.43;5.23;;;25.10;56.00;;;;;;4987945;28;20401;-62
2021/06/19 09:35:24;;;;;;;8.68;5.03;;;25.10;56.00;;;;;;4989848;28;20426;-63
2021/06/19 09:37:52;;;;;;;6.75;4.80;;;25.10;55.90;;;;;;4988925;28;20426;-63
2021/06/19 09:40:36;;;;;;;7.60;4.78;;;25.10;56.00;;;;;;4985295;28;20409;-63
2021/06/19 09:43:21;;;;;;;6.55;5.05;;;25.10;55.80;;;;;;4989701;28;20420;-62
2021/06/19 09:46:05;;;;;;;5.75;4.72;;;25.10;55.60;;;;;;4992112;28;20391;-63
2021/06/19 09:48:35;;;;;;;7.88;5.18;;;25.10;55.40;;;;;;4989231;28;20437;-62
2021/06/19 09:51:20;;;;;;;6.97;5.00;;;25.10;55.40;;;;;;4990149;28;20502;-62
2021/06/19 09:53:48;;;;;;;6.10;4.60;;;25.10;55.80;;;;;;4986991;28;20491;-63
2021/06/19 09:56:17;;;;;;;7.22;4.72;;;25.10;55.70;;;;;;4988366;28;20393;-63
2021/06/19 09:58:48;;;;;;;6.90;4.63;;;25.10;55.60;;;;;;4990454;28;20933;-62
2021/06/19 10:01:32;;;;;;;7.18;4.78;;;25.10;55.40;;;;;;4988238;28;20477;-63
2021/06/19 10:03:58;;;;;;;6.07;4.40;;;25.10;55.40;;;;;;4985477;28;20434;-63
2021/06/19 10:06:25;;;;;;;6.00;4.70;;;25.10;55.00;;;;;;5001596;28;20631;-62
2021/06/19 10:08:52;;;;;;;7.25;4.60;;;25.10;55.10;;;;;;4988294;28;20413;-62
2021/06/19 10:11:21;;;;;;;6.43;4.70;;;25.10;55.30;;;;;;4990787;28;20794;-62
2021/06/19 10:13:47;;;;;;;5.70;5.03;;;25.10;55.40;;;;;;4986732;28;20789;-62
2021/06/19 10:16:15;;;;;;;6.72;4.30;;;25.10;55.10;;;;;;4986948;28;20494;-63
2021/06/19 10:18:41;;;;;;;7.57;4.95;;;25.20;55.60;;;;;;4987087;28;20410;-62
2021/06/19 10:21:08;;;;;;;6.57;4.68;;;25.20;55.30;;;;;;4985222;28;20422;-62
2021/06/19 10:23:35;;;;;;;6.90;4.97;;;25.20;55.30;;;;;;4985360;28;20461;-62
2021/06/19 10:26:01;;;;;;;5.30;4.70;;;25.20;55.20;;;;;;4988672;28;20439;-62
2021/06/19 10:28:28;;;;;;;5.70;4.53;;;25.20;55.20;;;;;;4989101;28;20406;-62
2021/06/19 10:30:55;;;;;;;6.10;4.87;;;25.30;55.20;;;;;;4986382;28;20515;-62
2021/06/19 10:33:32;;;;;;;8.27;4.68;;;25.20;54.80;;;;;;4986973;28;20403;-62
2021/06/19 10:36:02;;;;;;;5.80;4.70;;;25.20;55.20;;;;;;4988216;28;20384;-62
2021/06/19 10:38:29;;;;;;;6.22;4.75;;;25.30;55.10;;;;;;4988064;28;20767;-62
2021/06/19 10:41:00;;;;;;;6.30;4.60;;;25.30;55.30;;;;;;4983758;28;20424;-62
2021/06/19 10:43:27;;;;;;;5.90;4.70;;;25.30;55.10;;;;;;4988399;28;20444;-62
2021/06/19 10:45:54;;;;;;;5.82;4.82;;;25.20;54.80;;;;;;4990822;28;21403;-62
2021/06/19 10:48:34;;;;;;;5.00;4.43;;;25.20;54.80;;;;;;4988389;28;20397;-62
2021/06/19 10:51:20;;;;;;;5.18;4.45;;;25.20;54.70;;;;;;4989586;28;20510;-62
2021/06/19 10:54:08;;;;;;;6.50;4.70;;;25.10;54.40;;;;;;4983259;28;20406;-61
2021/06/19 10:56:57;;;;;;;6.40;4.68;;;25.20;55.30;;;;;;4989024;28;20403;-61
2021/06/19 10:59:26;;;;;;;8.10;4.90;;;25.20;55.90;;;;;;5001631;28;20488;-61
2021/06/19 11:01:55;;;;;;;6.65;4.63;;;25.20;56.00;;;;;;4984495;28;20394;-62
2021/06/19 11:04:38;;;;;;;6.68;4.93;;;25.20;55.60;;;;;;4986901;28;20418;-61
2021/06/19 11:07:06;;;;;;;5.53;4.70;;;25.20;55.50;;;;;;4984374;28;20489;-61
2021/06/19 11:09:35;;;;;;;5.72;4.60;;;25.10;55.20;;;;;;5001818;28;20393;-61
2021/06/19 11:12:02;;;;;;;6.95;4.70;;;25.20;55.60;;;;;;4984704;28;20393;-61
2021/06/19 11:14:47;;;;;;;6.15;4.85;;;25.20;55.20;;;;;;4984686;28;21068;-64
2021/06/19 11:17:21;;;;;;;6.40;4.63;;;25.20;55.10;;;;;;4988550;28;20394;-61
2021/06/19 11:19:58;;;;;;;7.33;4.90;;;25.20;55.10;;;;;;4990255;28;20400;-61
2021/06/19 11:22:44;;;;;;;7.20;4.40;;;25.20;55.30;;;;;;4986713;28;20400;-61
2021/06/19 11:25:25;;;;;;;6.18;4.53;;;25.20;55.40;;;;;;4983990;28;20430;-62
2021/06/19 11:27:54;;;;;;;9.33;4.93;;;25.20;55.00;;;;;;4988888;28;20432;-65
2021/06/19 11:30:35;;;;;;;5.68;4.60;;;25.20;55.20;;;;;;4985267;28;20402;-62
2021/06/19 11:33:23;;;;;;;6.95;4.88;;;25.20;55.10;;;;;;4987855;28;20399;-62
2021/06/19 11:36:12;;;;;;;5.10;4.47;;;25.20;55.10;;;;;;4985087;28;20387;-62
2021/06/19 11:38:56;;;;;;;6.50;4.82;;;25.20;55.30;;;;;;4996698;28;20422;-62
2021/06/19 11:41:34;;;;;;;6.57;4.47;;;25.20;55.00;;;;;;4983719;28;20406;-62
2021/06/19 11:44:08;;;;;;;7.45;4.50;;;25.20;54.70;;;;;;4982850;28;20429;-62
2021/06/19 11:46:33;;;;;;;7.67;4.63;;;25.20;54.80;;;;;;4985429;28;20470;-62
2021/06/19 11:49:08;;;;;;;9.02;4.95;;;25.20;54.80;;;;;;4986062;28;20398;-62
2021/06/19 11:51:35;;;;;;;8.02;4.60;;;25.10;54.80;;;;;;4986826;28;20487;-62
2021/06/19 11:54:01;;;;;;;6.68;4.35;;;25.20;54.80;;;;;;4985776;28;20406;-62
2021/06/19 11:56:29;;;;;;;6.15;4.63;;;25.20;54.70;;;;;;4986104;28;20397;-62
2021/06/19 11:58:55;;;;;;;7.47;4.50;;;25.20;54.80;;;;;;4985949;28;20436;-61
2021/06/19 12:01:32;;;;;;;5.80;4.10;;;25.20;54.60;;;;;;4983189;28;20586;-62
2021/06/19 12:04:00;;;;;;;5.28;4.10;;;25.20;54.70;;;;;;4984942;28;20422;-62
2021/06/19 12:07:01;;;;;;;6.82;4.20;;;25.20;54.60;;;;;;4987796;28;20489;-62
2021/06/19 12:09:34;;;;;;;5.43;4.45;;;25.20;54.60;;;;;;4987913;28;20763;-62
2021/06/19 12:12:04;;;;;;;6.72;4.13;;;25.20;54.60;;;;;;4987390;28;20401;-62
2021/06/19 12:14:35;;;;;;;5.63;4.05;;;25.20;54.70;;;;;;4987827;28;20387;-62
2021/06/19 12:17:12;;;;;;;7.15;4.10;;;25.20;54.70;;;;;;4993595;28;20466;-62
2021/06/19 12:19:40;;;;;;;4.83;4.00;;;25.20;54.60;;;;;;4986387;28;20421;-62
2021/06/19 12:22:17;;;;;;;5.00;4.40;;;25.20;54.60;;;;;;4986139;28;20398;-62
2021/06/19 12:24:47;;;;;;;6.27;4.23;;;25.30;54.80;;;;;;4985087;28;20422;-62
2021/06/19 12:27:20;;;;;;;5.20;4.00;;;25.20;54.60;;;;;;4983519;28;20895;-62
2021/06/19 12:30:00;;;;;;;5.28;4.15;;;25.30;54.60;;;;;;4984623;28;20423;-62
2021/06/19 12:32:28;;;;;;;6.18;4.10;;;25.30;54.70;;;;;;4984627;28;20895;-62
2021/06/19 12:35:02;;;;;;;7.40;4.18;;;25.30;54.60;;;;;;4983400;28;20865;-62
2021/06/19 12:37:34;;;;;;;7.55;4.10;;;25.20;54.60;;;;;;4982741;28;20430;-62
2021/06/19 12:40:01;;;;;;;6.68;4.20;;;25.30;54.80;;;;;;4985944;28;20392;-62
2021/06/19 12:42:35;;;;;;;5.80;4.20;;;25.20;54.60;;;;;;4987204;28;20402;-62
2021/06/19 12:45:14;;;;;;;6.85;4.10;;;25.20;54.60;;;;;;4988459;28;20837;-62
2021/06/19 12:47:44;;;;;;;7.85;4.18;;;25.30;54.70;;;;;;4997319;28;20392;-62
2021/06/19 12:50:16;;;;;;;7.53;4.05;;;25.30;54.60;;;;;;4997563;28;20396;-62
2021/06/19 12:52:55;;;;;;;7.83;4.40;;;25.30;54.80;;;;;;4991028;28;20522;-62
2021/06/19 12:55:21;;;;;;;8.43;4.10;;;25.30;54.80;;;;;;4993209;28;20406;-62
2021/06/19 12:58:04;;;;;;;11.20;4.30;;;25.30;54.90;;;;;;4992185;28;20472;-62